sensor_id;sensor_type;location;lat;lon;timestamp;pressure;altitude;pressure_sealevel;temperature;humidity
5609;BME280;2826;51.354;9.588;2023-06-24T00:01:04;99017.97;;;17.39;94.58
5609;BME280;2826;51.354;9.588;2023-06-24T00:03:31;98986.22;;;17.11;94.33
5609;BME280;2826;51.354;9.588;2023-06-24T00:06:04;98989.72;;;17.12;94.80
5609;BME280;2826;51.354;9.588;2023-06-24T00:08:30;99016.00;;;17.27;94.82
5609;BME280;2826;51.354;9.588;2023-06-24T00:11:00;99010.94;;;17.23;94.58
5609;BME280;2826;51.354;9.588;2023-06-24T00:13:28;99016.34;;;17.20;94.25
5609;BME280;2826;51.354;9.588;2023-06-24T00:15:55;99015.91;;;17.12;94.65
5609;BME280;2826;51.354;9.588;2023-06-24T00:18:22;99004.66;;;17.10;94.74
5609;BME280;2826;51.354;9.588;2023-06-24T00:20:50;99011.75;;;17.08;94.84
5609;BME280;2826;51.354;9.588;2023-06-24T00:23:21;99018.00;;;17.05;94.38
5609;BME280;2826;51.354;9.588;2023-06-24T00:25:50;99019.81;;;17.03;94.61
5609;BME280;2826;51.354;9.588;2023-06-24T00:28:16;99023.53;;;16.99;94.79
5609;BME280;2826;51.354;9.588;2023-06-24T00:30:43;99009.31;;;16.87;94.66
5609;BME280;2826;51.354;9.588;2023-06-24T00:33:09;99027.00;;;17.00;94.83
5609;BME280;2826;51.354;9.588;2023-06-24T00:35:38;99030.47;;;17.00;94.64
5609;BME280;2826;51.354;9.588;2023-06-24T00:38:05;99006.09;;;16.82;94.70
5609;BME280;2826;51.354;9.588;2023-06-24T00:40:35;99035.09;;;16.95;95.02
5609;BME280;2826;51.354;9.588;2023-06-24T00:43:02;99032.53;;;16.93;94.56
5609;BME280;2826;51.354;9.588;2023-06-24T00:45:29;99030.84;;;16.92;94.98
5609;BME280;2826;51.354;9.588;2023-06-24T00:47:57;99008.09;;;16.77;94.89
5609;BME280;2826;51.354;9.588;2023-06-24T00:50:25;99038.56;;;16.95;94.65
5609;BME280;2826;51.354;9.588;2023-06-24T00:52:53;99036.88;;;16.94;95.11
5609;BME280;2826;51.354;9.588;2023-06-24T00:55:19;99034.19;;;16.96;95.20
5609;BME280;2826;51.354;9.588;2023-06-24T00:57:51;99038.72;;;16.92;95.25
5609;BME280;2826;51.354;9.588;2023-06-24T01:00:20;99035.34;;;16.90;94.82
5609;BME280;2826;51.354;9.588;2023-06-24T01:02:49;99037.88;;;16.92;94.42
5609;BME280;2826;51.354;9.588;2023-06-24T01:05:17;99041.53;;;16.89;94.64
5609;BME280;2826;51.354;9.588;2023-06-24T01:07:46;99057.38;;;16.86;94.87
5609;BME280;2826;51.354;9.588;2023-06-24T01:10:21;99053.91;;;16.85;94.55
5609;BME280;2826;51.354;9.588;2023-06-24T01:12:50;99049.00;;;16.79;94.71
5609;BME280;2826;51.354;9.588;2023-06-24T01:15:17;99048.00;;;16.82;94.57
5609;BME280;2826;51.354;9.588;2023-06-24T01:17:52;99051.63;;;16.79;94.53
5609;BME280;2826;51.354;9.588;2023-06-24T01:20:25;99048.31;;;16.76;94.54
5609;BME280;2826;51.354;9.588;2023-06-24T01:26:30;99047.06;;;16.65;94.65
5609;BME280;2826;51.354;9.588;2023-06-24T01:29:35;99044.63;;;16.62;94.99
5609;BME280;2826;51.354;9.588;2023-06-24T01:32:16;99047.53;;;16.56;95.20
5609;BME280;2826;51.354;9.588;2023-06-24T01:34:48;99044.47;;;16.48;95.47
5609;BME280;2826;51.354;9.588;2023-06-24T01:37:22;99035.13;;;16.42;96.24
5609;BME280;2826;51.354;9.588;2023-06-24T01:39:57;99029.13;;;16.40;96.47
5609;BME280;2826;51.354;9.588;2023-06-24T01:42:33;99027.47;;;16.39;96.22
5609;BME280;2826;51.354;9.588;2023-06-24T01:45:01;99029.22;;;16.38;96.22
5609;BME280;2826;51.354;9.588;2023-06-24T01:47:30;99036.13;;;16.39;96.45
5609;BME280;2826;51.354;9.588;2023-06-24T01:50:00;99033.63;;;16.38;96.14
5609;BME280;2826;51.354;9.588;2023-06-24T01:52:29;99031.91;;;16.37;96.49
5609;BME280;2826;51.354;9.588;2023-06-24T01:54:58;99030.16;;;16.37;96.43
5609;BME280;2826;51.354;9.588;2023-06-24T01:57:26;99027.53;;;16.37;96.60
5609;BME280;2826;51.354;9.588;2023-06-24T01:59:54;99029.22;;;16.38;96.88
5609;BME280;2826;51.354;9.588;2023-06-24T02:02:23;99033.63;;;16.38;96.56
5609;BME280;2826;51.354;9.588;2023-06-24T02:04:54;99036.31;;;16.36;96.50
5609;BME280;2826;51.354;9.588;2023-06-24T02:07:22;99036.59;;;16.30;96.23
5609;BME280;2826;51.354;9.588;2023-06-24T02:09:51;99038.75;;;16.22;96.09
5609;BME280;2826;51.354;9.588;2023-06-24T02:12:19;99038.13;;;16.16;96.16
5609;BME280;2826;51.354;9.588;2023-06-24T02:14:48;99042.13;;;16.06;96.18
5609;BME280;2826;51.354;9.588;2023-06-24T02:17:16;99037.09;;;16.01;96.42
5609;BME280;2826;51.354;9.588;2023-06-24T02:19:44;99034.56;;;16.00;96.05
5609;BME280;2826;51.354;9.588;2023-06-24T02:22:13;99031.25;;;15.96;95.85
5609;BME280;2826;51.354;9.588;2023-06-24T02:24:40;99027.97;;;15.91;96.20
5609;BME280;2826;51.354;9.588;2023-06-24T02:27:08;99026.44;;;15.87;96.06
5609;BME280;2826;51.354;9.588;2023-06-24T02:29:36;99027.41;;;15.84;96.06
5609;BME280;2826;51.354;9.588;2023-06-24T02:32:04;99031.78;;;15.84;96.04
5609;BME280;2826;51.354;9.588;2023-06-24T02:34:31;98970.09;;;15.43;96.22
5609;BME280;2826;51.354;9.588;2023-06-24T02:36:59;99036.25;;;15.81;96.10
5609;BME280;2826;51.354;9.588;2023-06-24T02:39:27;99038.88;;;15.81;96.05
5609;BME280;2826;51.354;9.588;2023-06-24T02:41:54;99042.34;;;15.82;96.30
5609;BME280;2826;51.354;9.588;2023-06-24T02:44:21;99042.34;;;15.82;96.39
5609;BME280;2826;51.354;9.588;2023-06-24T02:46:50;99041.56;;;15.80;96.44
5609;BME280;2826;51.354;9.588;2023-06-24T02:49:19;99044.25;;;15.78;96.48
5609;BME280;2826;51.354;9.588;2023-06-24T02:51:48;99040.72;;;15.79;96.20
5609;BME280;2826;51.354;9.588;2023-06-24T02:54:15;99045.97;;;15.79;95.94
5609;BME280;2826;51.354;9.588;2023-06-24T02:57:06;99040.00;;;15.76;96.11
5609;BME280;2826;51.354;9.588;2023-06-24T02:59:56;99050.53;;;15.74;96.26
5609;BME280;2826;51.354;9.588;2023-06-24T03:02:31;99049.72;;;15.74;96.06
5609;BME280;2826;51.354;9.588;2023-06-24T03:04:59;99047.09;;;15.74;96.14
5609;BME280;2826;51.354;9.588;2023-06-24T03:07:29;99054.13;;;15.72;95.96
5609;BME280;2826;51.354;9.588;2023-06-24T03:09:56;99045.59;;;15.68;96.16
5609;BME280;2826;51.354;9.588;2023-06-24T03:12:26;99059.53;;;15.68;95.92
5609;BME280;2826;51.354;9.588;2023-06-24T03:14:52;99056.91;;;15.68;96.24
5609;BME280;2826;51.354;9.588;2023-06-24T03:17:19;99057.75;;;15.69;96.02
5609;BME280;2826;51.354;9.588;2023-06-24T03:19:46;99056.06;;;15.68;95.62
5609;BME280;2826;51.354;9.588;2023-06-24T03:22:13;99046.59;;;15.65;95.79
5609;BME280;2826;51.354;9.588;2023-06-24T03:24:42;99052.59;;;15.67;95.93
5609;BME280;2826;51.354;9.588;2023-06-24T03:27:09;99052.75;;;15.64;95.60
5609;BME280;2826;51.354;9.588;2023-06-24T03:29:41;99045.75;;;15.65;95.97
5609;BME280;2826;51.354;9.588;2023-06-24T03:32:11;99044.06;;;15.64;95.75
5609;BME280;2826;51.354;9.588;2023-06-24T03:34:39;99046.66;;;15.64;95.22
5609;BME280;2826;51.354;9.588;2023-06-24T03:37:08;99055.38;;;15.64;95.84
5609;BME280;2826;51.354;9.588;2023-06-24T03:39:38;99050.13;;;15.64;95.45
5609;BME280;2826;51.354;9.588;2023-06-24T03:42:05;99052.69;;;15.66;95.84
5609;BME280;2826;51.354;9.588;2023-06-24T03:44:32;99053.50;;;15.66;95.53
5609;BME280;2826;51.354;9.588;2023-06-24T03:47:02;99048.22;;;15.68;95.72
5609;BME280;2826;51.354;9.588;2023-06-24T03:49:29;99053.38;;;15.70;95.94
5609;BME280;2826;51.354;9.588;2023-06-24T03:51:56;99055.13;;;15.69;95.30
5609;BME280;2826;51.354;9.588;2023-06-24T03:54:24;99052.47;;;15.71;95.72
5609;BME280;2826;51.354;9.588;2023-06-24T03:56:50;99056.63;;;15.75;95.56
5609;BME280;2826;51.354;9.588;2023-06-24T03:59:17;99053.81;;;15.79;95.36
5609;BME280;2826;51.354;9.588;2023-06-24T04:01:43;99059.78;;;15.81;95.45
5609;BME280;2826;51.354;9.588;2023-06-24T04:04:11;99067.44;;;15.86;95.42
5609;BME280;2826;51.354;9.588;2023-06-24T04:06:38;99071.75;;;15.87;94.87
5609;BME280;2826;51.354;9.588;2023-06-24T04:09:05;99068.97;;;15.90;94.62
5609;BME280;2826;51.354;9.588;2023-06-24T04:11:34;99067.13;;;15.92;94.40
5609;BME280;2826;51.354;9.588;2023-06-24T04:14:00;99068.06;;;15.91;93.84
5609;BME280;2826;51.354;9.588;2023-06-24T04:16:27;99051.25;;;15.78;93.64
5609;BME280;2826;51.354;9.588;2023-06-24T04:18:54;99075.91;;;15.91;93.46
5609;BME280;2826;51.354;9.588;2023-06-24T04:21:22;99079.25;;;15.95;93.46
5609;BME280;2826;51.354;9.588;2023-06-24T04:23:49;99074.72;;;15.99;93.39
5609;BME280;2826;51.354;9.588;2023-06-24T04:26:16;99078.81;;;16.04;93.26
5609;BME280;2826;51.354;9.588;2023-06-24T04:28:43;99084.66;;;16.10;93.59
5609;BME280;2826;51.354;9.588;2023-06-24T04:31:09;99077.44;;;16.15;93.13
5609;BME280;2826;51.354;9.588;2023-06-24T04:33:37;99085.00;;;16.21;93.26
5609;BME280;2826;51.354;9.588;2023-06-24T04:36:04;99084.78;;;16.26;93.45
5609;BME280;2826;51.354;9.588;2023-06-24T04:38:33;99078.31;;;16.33;93.28
5609;BME280;2826;51.354;9.588;2023-06-24T04:41:00;99069.25;;;16.40;93.09
5609;BME280;2826;51.354;9.588;2023-06-24T04:43:27;99075.03;;;16.47;92.99
5609;BME280;2826;51.354;9.588;2023-06-24T04:45:54;99088.66;;;16.54;92.99
5609;BME280;2826;51.354;9.588;2023-06-24T04:48:23;99091.84;;;16.61;93.12
5609;BME280;2826;51.354;9.588;2023-06-24T04:50:50;99088.97;;;16.65;92.79
5609;BME280;2826;51.354;9.588;2023-06-24T04:53:18;99093.06;;;16.71;93.18
5609;BME280;2826;51.354;9.588;2023-06-24T04:55:47;99092.50;;;16.82;92.98
5609;BME280;2826;51.354;9.588;2023-06-24T04:58:14;99095.75;;;16.87;92.81
5609;BME280;2826;51.354;9.588;2023-06-24T05:00:40;99090.28;;;16.92;92.25
5609;BME280;2826;51.354;9.588;2023-06-24T05:03:07;99094.34;;;16.97;92.00
5609;BME280;2826;51.354;9.588;2023-06-24T05:05:34;99094.03;;;17.04;92.18
5609;BME280;2826;51.354;9.588;2023-06-24T05:08:01;99086.47;;;17.15;92.49
5609;BME280;2826;51.354;9.588;2023-06-24T05:10:27;99091.56;;;17.18;91.93
5609;BME280;2826;51.354;9.588;2023-06-24T05:12:55;99086.84;;;17.25;91.83
5609;BME280;2826;51.354;9.588;2023-06-24T05:15:22;99093.41;;;17.34;91.79
5609;BME280;2826;51.354;9.588;2023-06-24T05:17:49;99094.00;;;17.39;91.37
5609;BME280;2826;51.354;9.588;2023-06-24T05:20:16;99099.69;;;17.47;91.17
5609;BME280;2826;51.354;9.588;2023-06-24T05:22:43;99093.34;;;17.52;91.26
5609;BME280;2826;51.354;9.588;2023-06-24T05:25:10;99095.56;;;17.59;91.42
5609;BME280;2826;51.354;9.588;2023-06-24T05:27:36;99093.38;;;17.68;90.70
5609;BME280;2826;51.354;9.588;2023-06-24T05:30:06;99098.09;;;17.77;91.10
5609;BME280;2826;51.354;9.588;2023-06-24T05:32:33;99102.84;;;17.86;90.80
5609;BME280;2826;51.354;9.588;2023-06-24T05:34:59;99099.63;;;17.97;90.57
5609;BME280;2826;51.354;9.588;2023-06-24T05:37:26;99109.69;;;18.05;90.12
5609;BME280;2826;51.354;9.588;2023-06-24T05:39:53;99104.81;;;18.15;89.54
5609;BME280;2826;51.354;9.588;2023-06-24T05:42:22;99106.06;;;18.24;88.92
5609;BME280;2826;51.354;9.588;2023-06-24T05:44:51;99112.66;;;18.31;88.43
5609;BME280;2826;51.354;9.588;2023-06-24T05:47:19;99109.75;;;18.36;87.78
5609;BME280;2826;51.354;9.588;2023-06-24T05:49:46;99108.75;;;18.38;86.51
5609;BME280;2826;51.354;9.588;2023-06-24T05:52:12;99111.97;;;18.44;87.04
5609;BME280;2826;51.354;9.588;2023-06-24T05:54:39;99110.94;;;18.46;86.96
5609;BME280;2826;51.354;9.588;2023-06-24T05:57:06;99113.03;;;18.56;86.83
5609;BME280;2826;51.354;9.588;2023-06-24T05:59:32;99107.34;;;18.63;86.38
5609;BME280;2826;51.354;9.588;2023-06-24T06:01:59;99110.28;;;18.73;86.21
5609;BME280;2826;51.354;9.588;2023-06-24T06:04:28;99112.53;;;18.79;86.10
5609;BME280;2826;51.354;9.588;2023-06-24T06:06:55;99116.91;;;18.95;86.42
5609;BME280;2826;51.354;9.588;2023-06-24T06:09:22;99120.59;;;19.07;86.10
5609;BME280;2826;51.354;9.588;2023-06-24T06:11:49;99121.09;;;19.14;85.52
5609;BME280;2826;51.354;9.588;2023-06-24T06:14:15;99127.47;;;19.24;85.65
5609;BME280;2826;51.354;9.588;2023-06-24T06:16:42;99118.00;;;19.36;85.03
5609;BME280;2826;51.354;9.588;2023-06-24T06:19:09;99123.63;;;19.44;84.78
5609;BME280;2826;51.354;9.588;2023-06-24T06:21:38;99105.69;;;19.37;84.11
5609;BME280;2826;51.354;9.588;2023-06-24T06:24:06;99129.81;;;19.58;84.34
5609;BME280;2826;51.354;9.588;2023-06-24T06:26:32;99123.16;;;19.67;83.72
5609;BME280;2826;51.354;9.588;2023-06-24T06:28:59;99120.41;;;19.68;84.17
5609;BME280;2826;51.354;9.588;2023-06-24T06:31:25;99122.03;;;19.71;84.64
5609;BME280;2826;51.354;9.588;2023-06-24T06:33:52;99120.22;;;19.71;84.58
5609;BME280;2826;51.354;9.588;2023-06-24T06:36:19;99124.09;;;19.80;84.40
5609;BME280;2826;51.354;9.588;2023-06-24T06:38:47;99123.69;;;19.87;84.35
5609;BME280;2826;51.354;9.588;2023-06-24T06:41:13;99118.63;;;19.98;84.04
5609;BME280;2826;51.354;9.588;2023-06-24T06:43:39;99120.44;;;20.10;83.87
5609;BME280;2826;51.354;9.588;2023-06-24T06:46:06;99117.03;;;20.23;82.44
5609;BME280;2826;51.354;9.588;2023-06-24T06:48:33;99129.50;;;20.34;83.00
5609;BME280;2826;51.354;9.588;2023-06-24T06:50:59;99124.50;;;20.44;82.77
5609;BME280;2826;51.354;9.588;2023-06-24T06:53:26;99119.56;;;20.52;81.55
5609;BME280;2826;51.354;9.588;2023-06-24T06:55:54;99118.00;;;20.62;81.45
5609;BME280;2826;51.354;9.588;2023-06-24T06:58:21;99121.69;;;20.73;80.78
5609;BME280;2826;51.354;9.588;2023-06-24T07:00:48;99116.78;;;20.81;80.22
5609;BME280;2826;51.354;9.588;2023-06-24T07:03:15;99116.41;;;20.87;78.83
5609;BME280;2826;51.354;9.588;2023-06-24T07:05:41;99113.97;;;20.97;78.61
5609;BME280;2826;51.354;9.588;2023-06-24T07:08:08;99116.59;;;20.97;77.03
5609;BME280;2826;51.354;9.588;2023-06-24T07:10:35;99120.72;;;21.01;77.63
5609;BME280;2826;51.354;9.588;2023-06-24T07:13:03;99110.50;;;21.10;76.16
5609;BME280;2826;51.354;9.588;2023-06-24T07:15:29;99109.13;;;21.17;75.88
5609;BME280;2826;51.354;9.588;2023-06-24T07:17:56;99112.09;;;21.25;75.87
5609;BME280;2826;51.354;9.588;2023-06-24T07:20:23;99104.69;;;21.44;75.05
5609;BME280;2826;51.354;9.588;2023-06-24T07:22:49;99116.56;;;21.62;75.12
5609;BME280;2826;51.354;9.588;2023-06-24T07:25:16;99105.28;;;21.73;71.74
5609;BME280;2826;51.354;9.588;2023-06-24T07:27:43;99113.94;;;21.75;69.27
5609;BME280;2826;51.354;9.588;2023-06-24T07:30:11;99117.00;;;21.82;70.74
5609;BME280;2826;51.354;9.588;2023-06-24T07:32:37;99114.00;;;21.87;69.87
5609;BME280;2826;51.354;9.588;2023-06-24T07:35:05;99107.44;;;21.92;71.04
5609;BME280;2826;51.354;9.588;2023-06-24T07:37:33;99107.28;;;22.07;70.23
5609;BME280;2826;51.354;9.588;2023-06-24T07:40:00;99105.44;;;22.21;68.53
5609;BME280;2826;51.354;9.588;2023-06-24T07:42:27;99108.75;;;22.36;68.18
5609;BME280;2826;51.354;9.588;2023-06-24T07:44:54;99110.38;;;22.50;68.16
5609;BME280;2826;51.354;9.588;2023-06-24T07:47:21;99110.44;;;22.61;66.57
5609;BME280;2826;51.354;9.588;2023-06-24T07:49:49;99105.66;;;22.66;64.56
5609;BME280;2826;51.354;9.588;2023-06-24T07:52:16;99113.28;;;22.82;65.09
5609;BME280;2826;51.354;9.588;2023-06-24T07:54:42;99111.00;;;22.89;63.73
5609;BME280;2826;51.354;9.588;2023-06-24T07:57:09;99108.09;;;22.92;63.52
5609;BME280;2826;51.354;9.588;2023-06-24T07:59:36;99108.75;;;23.07;63.96
5609;BME280;2826;51.354;9.588;2023-06-24T08:02:03;99115.22;;;23.03;61.26
5609;BME280;2826;51.354;9.588;2023-06-24T08:04:31;99112.50;;;23.16;63.54
5609;BME280;2826;51.354;9.588;2023-06-24T08:06:58;99112.59;;;23.15;63.23
5609;BME280;2826;51.354;9.588;2023-06-24T08:09:24;99111.56;;;23.40;62.76
5609;BME280;2826;51.354;9.588;2023-06-24T08:11:51;99105.44;;;23.62;61.45
5609;BME280;2826;51.354;9.588;2023-06-24T08:14:17;99110.47;;;23.66;57.19
5609;BME280;2826;51.354;9.588;2023-06-24T08:16:45;99107.34;;;23.72;56.46
5609;BME280;2826;51.354;9.588;2023-06-24T08:19:11;99110.22;;;23.80;56.23
5609;BME280;2826;51.354;9.588;2023-06-24T08:21:39;99109.72;;;23.86;54.26
5609;BME280;2826;51.354;9.588;2023-06-24T08:24:06;99111.88;;;23.93;54.38
5609;BME280;2826;51.354;9.588;2023-06-24T08:26:33;99107.03;;;23.98;55.44
5609;BME280;2826;51.354;9.588;2023-06-24T08:29:00;99102.13;;;23.93;53.29
5609;BME280;2826;51.354;9.588;2023-06-24T08:31:27;99106.22;;;23.86;53.83
5609;BME280;2826;51.354;9.588;2023-06-24T08:33:53;99099.47;;;23.93;56.16
5609;BME280;2826;51.354;9.588;2023-06-24T08:36:21;99095.56;;;24.09;53.05
5609;BME280;2826;51.354;9.588;2023-06-24T08:38:49;99101.63;;;24.11;54.58
5609;BME280;2826;51.354;9.588;2023-06-24T08:41:16;99103.09;;;24.36;54.81
5609;BME280;2826;51.354;9.588;2023-06-24T08:43:42;99095.72;;;24.40;54.72
5609;BME280;2826;51.354;9.588;2023-06-24T08:46:09;99099.88;;;24.54;54.84
5609;BME280;2826;51.354;9.588;2023-06-24T08:48:39;99106.63;;;24.58;52.97
5609;BME280;2826;51.354;9.588;2023-06-24T08:51:07;99108.69;;;24.76;54.81
5609;BME280;2826;51.354;9.588;2023-06-24T08:53:34;99107.16;;;24.95;54.45
5609;BME280;2826;51.354;9.588;2023-06-24T08:56:04;99106.25;;;25.05;51.70
5609;BME280;2826;51.354;9.588;2023-06-24T08:58:31;99108.47;;;25.00;52.01
5609;BME280;2826;51.354;9.588;2023-06-24T09:00:58;99114.47;;;25.02;50.56
5609;BME280;2826;51.354;9.588;2023-06-24T09:03:24;99116.41;;;25.00;52.80
5609;BME280;2826;51.354;9.588;2023-06-24T09:05:51;99107.78;;;25.08;50.87
5609;BME280;2826;51.354;9.588;2023-06-24T09:08:18;99127.03;;;25.00;48.32
5609;BME280;2826;51.354;9.588;2023-06-24T09:10:52;99118.63;;;24.95;48.33
5609;BME280;2826;51.354;9.588;2023-06-24T09:13:27;99116.31;;;25.12;47.72
5609;BME280;2826;51.354;9.588;2023-06-24T09:16:00;99113.28;;;25.16;49.74
5609;BME280;2826;51.354;9.588;2023-06-24T09:18:34;99114.22;;;25.37;50.52
5609;BME280;2826;51.354;9.588;2023-06-24T09:21:01;99108.06;;;25.36;48.96
5609;BME280;2826;51.354;9.588;2023-06-24T09:23:28;99108.47;;;25.31;48.06
5609;BME280;2826;51.354;9.588;2023-06-24T09:25:56;99112.81;;;25.33;50.11
5609;BME280;2826;51.354;9.588;2023-06-24T09:28:27;99078.47;;;25.41;49.07
5609;BME280;2826;51.354;9.588;2023-06-24T09:31:05;99089.06;;;25.72;50.06
5609;BME280;2826;51.354;9.588;2023-06-24T09:33:33;99100.84;;;25.89;47.47
5609;BME280;2826;51.354;9.588;2023-06-24T09:36:02;99096.97;;;26.03;48.63
5609;BME280;2826;51.354;9.588;2023-06-24T09:38:32;99105.78;;;26.14;47.63
5609;BME280;2826;51.354;9.588;2023-06-24T09:41:02;99098.94;;;26.11;48.62
5609;BME280;2826;51.354;9.588;2023-06-24T09:43:30;99091.78;;;26.21;48.51
5609;BME280;2826;51.354;9.588;2023-06-24T09:45:57;99089.00;;;26.23;47.77
5609;BME280;2826;51.354;9.588;2023-06-24T09:48:24;99089.16;;;26.12;46.88
5609;BME280;2826;51.354;9.588;2023-06-24T09:50:51;99079.91;;;26.16;46.22
5609;BME280;2826;51.354;9.588;2023-06-24T09:53:18;99082.72;;;26.24;46.95
5609;BME280;2826;51.354;9.588;2023-06-24T09:55:48;99077.94;;;26.18;47.31
5609;BME280;2826;51.354;9.588;2023-06-24T09:58:16;99077.78;;;26.09;46.74
5609;BME280;2826;51.354;9.588;2023-06-24T10:00:46;99071.66;;;26.09;47.04
5609;BME280;2826;51.354;9.588;2023-06-24T10:03:13;99072.38;;;26.41;47.38
5609;BME280;2826;51.354;9.588;2023-06-24T10:05:40;99075.16;;;26.59;45.76
5609;BME280;2826;51.354;9.588;2023-06-24T10:08:08;99074.03;;;26.52;46.71
5609;BME280;2826;51.354;9.588;2023-06-24T10:10:35;99016.97;;;26.36;46.22
5609;BME280;2826;51.354;9.588;2023-06-24T10:13:02;99066.97;;;26.90;45.02
5609;BME280;2826;51.354;9.588;2023-06-24T10:15:29;99066.50;;;27.15;45.44
5609;BME280;2826;51.354;9.588;2023-06-24T10:18:01;99062.09;;;27.33;44.06
5609;BME280;2826;51.354;9.588;2023-06-24T10:20:28;99058.38;;;27.44;44.58
5609;BME280;2826;51.354;9.588;2023-06-24T10:22:54;99067.50;;;27.42;44.69
5609;BME280;2826;51.354;9.588;2023-06-24T10:25:21;99057.53;;;27.44;44.07
5609;BME280;2826;51.354;9.588;2023-06-24T10:27:53;99060.59;;;27.49;43.29
5609;BME280;2826;51.354;9.588;2023-06-24T10:30:21;99049.66;;;27.52;42.87
5609;BME280;2826;51.354;9.588;2023-06-24T10:32:51;99054.97;;;27.62;42.70
5609;BME280;2826;51.354;9.588;2023-06-24T10:35:24;99054.28;;;27.78;42.82
5609;BME280;2826;51.354;9.588;2023-06-24T10:37:55;99002.09;;;27.57;42.86
5609;BME280;2826;51.354;9.588;2023-06-24T10:40:36;99053.28;;;27.79;42.84
5609;BME280;2826;51.354;9.588;2023-06-24T10:43:25;99046.06;;;27.71;44.64
5609;BME280;2826;51.354;9.588;2023-06-24T10:45:52;99042.31;;;27.64;42.46
5609;BME280;2826;51.354;9.588;2023-06-24T10:48:19;99035.59;;;27.32;42.89
5609;BME280;2826;51.354;9.588;2023-06-24T10:50:48;99040.16;;;27.21;44.29
5609;BME280;2826;51.354;9.588;2023-06-24T10:53:16;99042.19;;;26.99;44.73
5609;BME280;2826;51.354;9.588;2023-06-24T10:55:44;99045.66;;;27.00;44.84
5609;BME280;2826;51.354;9.588;2023-06-24T10:58:12;99039.00;;;27.24;43.99
5609;BME280;2826;51.354;9.588;2023-06-24T11:00:41;99032.75;;;27.43;44.12
5609;BME280;2826;51.354;9.588;2023-06-24T11:03:10;99024.41;;;27.28;43.61
5609;BME280;2826;51.354;9.588;2023-06-24T11:05:38;99023.75;;;27.44;44.86
5609;BME280;2826;51.354;9.588;2023-06-24T11:08:06;99022.41;;;27.58;44.43
5609;BME280;2826;51.354;9.588;2023-06-24T11:10:33;99016.31;;;27.94;44.80
5609;BME280;2826;51.354;9.588;2023-06-24T11:13:05;99007.00;;;28.35;44.32
5609;BME280;2826;51.354;9.588;2023-06-24T11:15:32;99016.00;;;28.60;44.70
5609;BME280;2826;51.354;9.588;2023-06-24T11:18:02;99015.63;;;28.81;42.94
5609;BME280;2826;51.354;9.588;2023-06-24T11:20:29;99003.00;;;28.57;43.26
5609;BME280;2826;51.354;9.588;2023-06-24T11:22:56;99008.88;;;28.69;43.61
5609;BME280;2826;51.354;9.588;2023-06-24T11:25:24;99006.09;;;28.79;39.58
5609;BME280;2826;51.354;9.588;2023-06-24T11:27:51;99010.72;;;28.68;40.63
5609;BME280;2826;51.354;9.588;2023-06-24T11:30:18;99005.72;;;28.74;40.23
5609;BME280;2826;51.354;9.588;2023-06-24T11:32:47;98995.88;;;29.01;41.09
5609;BME280;2826;51.354;9.588;2023-06-24T11:35:17;98995.50;;;29.22;42.56
5609;BME280;2826;51.354;9.588;2023-06-24T11:37:45;98995.13;;;29.60;41.84
5609;BME280;2826;51.354;9.588;2023-06-24T11:40:13;98993.34;;;29.34;40.15
5609;BME280;2826;51.354;9.588;2023-06-24T11:42:43;98996.06;;;28.73;40.38
5609;BME280;2826;51.354;9.588;2023-06-24T11:45:12;98987.28;;;28.54;41.65
5609;BME280;2826;51.354;9.588;2023-06-24T11:47:40;98988.03;;;28.91;40.06
5609;BME280;2826;51.354;9.588;2023-06-24T11:50:07;98994.19;;;28.91;40.33
5609;BME280;2826;51.354;9.588;2023-06-24T11:52:38;98988.03;;;28.99;41.76
5609;BME280;2826;51.354;9.588;2023-06-24T11:55:11;98981.59;;;29.18;40.00
5609;BME280;2826;51.354;9.588;2023-06-24T11:57:54;98974.81;;;29.32;39.46
5609;BME280;2826;51.354;9.588;2023-06-24T12:00:32;98972.19;;;29.49;39.83
5609;BME280;2826;51.354;9.588;2023-06-24T12:03:03;98974.56;;;29.60;38.80
5609;BME280;2826;51.354;9.588;2023-06-24T12:05:31;98968.56;;;29.67;38.33
5609;BME280;2826;51.354;9.588;2023-06-24T12:08:00;98970.56;;;29.73;37.26
5609;BME280;2826;51.354;9.588;2023-06-24T12:10:27;98965.56;;;29.70;36.35
5609;BME280;2826;51.354;9.588;2023-06-24T12:12:56;98969.91;;;29.71;37.95
5609;BME280;2826;51.354;9.588;2023-06-24T12:15:23;98959.06;;;29.64;37.69
5609;BME280;2826;51.354;9.588;2023-06-24T12:17:50;98961.72;;;29.56;37.51
5609;BME280;2826;51.354;9.588;2023-06-24T12:20:16;98966.06;;;29.65;39.06
5609;BME280;2826;51.354;9.588;2023-06-24T12:22:44;98954.88;;;29.95;37.62
5609;BME280;2826;51.354;9.588;2023-06-24T12:25:11;98953.06;;;30.12;37.92
5609;BME280;2826;51.354;9.588;2023-06-24T12:27:38;98953.22;;;30.19;37.63
5609;BME280;2826;51.354;9.588;2023-06-24T12:30:08;98957.03;;;29.99;37.45
5609;BME280;2826;51.354;9.588;2023-06-24T12:32:35;98961.41;;;29.84;37.62
5609;BME280;2826;51.354;9.588;2023-06-24T12:35:02;98952.88;;;29.72;37.24
5609;BME280;2826;51.354;9.588;2023-06-24T12:37:30;98961.06;;;29.87;37.45
5609;BME280;2826;51.354;9.588;2023-06-24T12:39:57;98951.38;;;30.19;36.87
5609;BME280;2826;51.354;9.588;2023-06-24T12:42:23;98951.06;;;30.22;36.24
5609;BME280;2826;51.354;9.588;2023-06-24T12:44:50;98951.34;;;29.86;37.38
5609;BME280;2826;51.354;9.588;2023-06-24T12:47:18;98944.34;;;29.85;37.17
5609;BME280;2826;51.354;9.588;2023-06-24T12:49:45;98950.88;;;29.82;36.32
5609;BME280;2826;51.354;9.588;2023-06-24T12:52:12;98935.84;;;29.98;37.62
5609;BME280;2826;51.354;9.588;2023-06-24T12:54:38;98941.34;;;30.13;39.83
5609;BME280;2826;51.354;9.588;2023-06-24T12:57:05;98935.78;;;30.40;37.73
5609;BME280;2826;51.354;9.588;2023-06-24T12:59:32;98938.75;;;30.61;37.14
5609;BME280;2826;51.354;9.588;2023-06-24T13:01:59;98929.84;;;30.77;37.22
5609;BME280;2826;51.354;9.588;2023-06-24T13:04:27;98923.41;;;30.95;35.13
5609;BME280;2826;51.354;9.588;2023-06-24T13:06:54;98929.63;;;31.19;34.52
5609;BME280;2826;51.354;9.588;2023-06-24T13:09:20;98909.06;;;31.43;35.72
5609;BME280;2826;51.354;9.588;2023-06-24T13:11:47;98926.88;;;31.83;33.91
5609;BME280;2826;51.354;9.588;2023-06-24T13:14:14;98925.94;;;31.52;32.75
5609;BME280;2826;51.354;9.588;2023-06-24T13:16:41;98923.03;;;31.62;34.73
5609;BME280;2826;51.354;9.588;2023-06-24T13:19:08;98931.66;;;31.72;34.69
5609;BME280;2826;51.354;9.588;2023-06-24T13:21:36;98926.13;;;31.74;33.37
5609;BME280;2826;51.354;9.588;2023-06-24T13:24:03;98926.25;;;31.57;34.78
5609;BME280;2826;51.354;9.588;2023-06-24T13:26:29;98924.56;;;31.56;34.02
5609;BME280;2826;51.354;9.588;2023-06-24T13:28:56;98928.28;;;31.55;33.28
5609;BME280;2826;51.354;9.588;2023-06-24T13:31:23;98924.00;;;31.46;33.69